sensor_id;sensor_type;location;lat;lon;timestamp;temperature;humidity
13980;DHT22;73871;49.900;8.594;2024-01-30T00:02:02;2.00;99.90
13980;DHT22;73871;49.900;8.594;2024-01-30T00:04:30;2.00;99.90
13980;DHT22;73871;49.900;8.594;2024-01-30T00:06:56;2.00;99.90
13980;DHT22;73871;49.900;8.594;2024-01-30T00:09:23;2.00;99.90
13980;DHT22;73871;49.900;8.594;2024-01-30T00:11:50;2.00;99.90
13980;DHT22;73871;49.900;8.594;2024-01-30T00:14:17;2.00;99.90
13980;DHT22;73871;49.900;8.594;2024-01-30T00:16:44;2.00;99.90
13980;DHT22;73871;49.900;8.594;2024-01-30T00:19:12;2.00;99.90
13980;DHT22;73871;49.900;8.594;2024-01-30T00:21:38;2.00;99.90
13980;DHT22;73871;49.900;8.594;2024-01-30T00:24:05;2.00;99.90
13980;DHT22;73871;49.900;8.594;2024-01-30T00:26:32;1.90;99.90
13980;DHT22;73871;49.900;8.594;2024-01-30T00:28:59;1.90;99.90
13980;DHT22;73871;49.900;8.594;2024-01-30T00:31:25;1.90;99.90
13980;DHT22;73871;49.900;8.594;2024-01-30T00:33:52;1.80;99.90
13980;DHT22;73871;49.900;8.594;2024-01-30T00:36:19;1.80;99.90
13980;DHT22;73871;49.900;8.594;2024-01-30T00:38:46;1.80;99.90
13980;DHT22;73871;49.900;8.594;2024-01-30T00:41:13;1.80;99.90
13980;DHT22;73871;49.900;8.594;2024-01-30T00:43:40;1.90;99.90
13980;DHT22;73871;49.900;8.594;2024-01-30T00:46:07;1.90;99.90
13980;DHT22;73871;49.900;8.594;2024-01-30T00:48:33;1.80;99.90
13980;DHT22;73871;49.900;8.594;2024-01-30T00:51:00;1.80;99.90
13980;DHT22;73871;49.900;8.594;2024-01-30T00:53:27;1.80;99.90
13980;DHT22;73871;49.900;8.594;2024-01-30T00:55:53;1.80;99.90
13980;DHT22;73871;49.900;8.594;2024-01-30T00:58:20;1.70;99.90
13980;DHT22;73871;49.900;8.594;2024-01-30T01:00:47;1.70;99.90
13980;DHT22;73871;49.900;8.594;2024-01-30T01:03:14;1.60;99.90
13980;DHT22;73871;49.900;8.594;2024-01-30T01:05:41;1.60;99.90
13980;DHT22;73871;49.900;8.594;2024-01-30T01:08:07;1.60;99.90
13980;DHT22;73871;49.900;8.594;2024-01-30T01:10:35;1.60;99.90
13980;DHT22;73871;49.900;8.594;2024-01-30T01:13:02;1.60;99.90
13980;DHT22;73871;49.900;8.594;2024-01-30T01:15:29;1.60;99.90
13980;DHT22;73871;49.900;8.594;2024-01-30T01:17:56;1.60;99.90
13980;DHT22;73871;49.900;8.594;2024-01-30T01:20:23;1.60;99.90
13980;DHT22;73871;49.900;8.594;2024-01-30T01:22:50;1.60;99.90
13980;DHT22;73871;49.900;8.594;2024-01-30T01:25:16;1.50;99.90
13980;DHT22;73871;49.900;8.594;2024-01-30T01:27:44;1.50;99.90
13980;DHT22;73871;49.900;8.594;2024-01-30T01:30:18;1.50;99.90
13980;DHT22;73871;49.900;8.594;2024-01-30T01:32:51;1.50;99.90
13980;DHT22;73871;49.900;8.594;2024-01-30T01:35:25;1.50;99.90
13980;DHT22;73871;49.900;8.594;2024-01-30T01:37:52;1.50;99.90
13980;DHT22;73871;49.900;8.594;2024-01-30T01:40:26;1.40;99.90
13980;DHT22;73871;49.900;8.594;2024-01-30T01:42:54;1.50;99.90
13980;DHT22;73871;49.900;8.594;2024-01-30T01:45:21;1.50;99.90
13980;DHT22;73871;49.900;8.594;2024-01-30T01:47:51;1.50;99.90
13980;DHT22;73871;49.900;8.594;2024-01-30T01:50:18;1.60;99.90
13980;DHT22;73871;49.900;8.594;2024-01-30T01:52:47;1.50;99.90
13980;DHT22;73871;49.900;8.594;2024-01-30T01:55:15;1.60;99.90
13980;DHT22;73871;49.900;8.594;2024-01-30T01:57:42;1.50;99.90
13980;DHT22;73871;49.900;8.594;2024-01-30T02:00:10;1.40;99.90
13980;DHT22;73871;49.900;8.594;2024-01-30T02:02:39;1.40;99.90
13980;DHT22;73871;49.900;8.594;2024-01-30T02:05:06;1.40;99.90
13980;DHT22;73871;49.900;8.594;2024-01-30T02:07:33;1.30;99.90
13980;DHT22;73871;49.900;8.594;2024-01-30T02:09:59;1.20;99.90
13980;DHT22;73871;49.900;8.594;2024-01-30T02:12:26;1.20;99.90
13980;DHT22;73871;49.900;8.594;2024-01-30T02:14:53;1.20;99.90
13980;DHT22;73871;49.900;8.594;2024-01-30T02:17:21;1.20;99.90
13980;DHT22;73871;49.900;8.594;2024-01-30T02:19:50;1.10;99.90
13980;DHT22;73871;49.900;8.594;2024-01-30T02:22:16;1.10;99.90
13980;DHT22;73871;49.900;8.594;2024-01-30T02:24:44;1.10;99.90
13980;DHT22;73871;49.900;8.594;2024-01-30T02:27:11;1.10;99.90
13980;DHT22;73871;49.900;8.594;2024-01-30T02:29:38;1.20;99.90
13980;DHT22;73871;49.900;8.594;2024-01-30T02:32:05;1.10;99.90
13980;DHT22;73871;49.900;8.594;2024-01-30T02:34:32;1.10;99.90
13980;DHT22;73871;49.900;8.594;2024-01-30T02:36:59;1.10;99.90
13980;DHT22;73871;49.900;8.594;2024-01-30T02:39:26;1.10;99.90
13980;DHT22;73871;49.900;8.594;2024-01-30T02:41:53;1.00;99.90
13980;DHT22;73871;49.900;8.594;2024-01-30T02:44:20;1.00;99.90
13980;DHT22;73871;49.900;8.594;2024-01-30T02:46:47;1.00;99.90
13980;DHT22;73871;49.900;8.594;2024-01-30T02:49:13;0.90;99.90
13980;DHT22;73871;49.900;8.594;2024-01-30T02:51:40;0.90;99.90
13980;DHT22;73871;49.900;8.594;2024-01-30T02:54:07;0.80;99.90
13980;DHT22;73871;49.900;8.594;2024-01-30T02:56:33;0.80;99.90
13980;DHT22;73871;49.900;8.594;2024-01-30T02:59:00;0.80;99.90
13980;DHT22;73871;49.900;8.594;2024-01-30T03:01:27;0.70;99.90
13980;DHT22;73871;49.900;8.594;2024-01-30T03:03:54;0.80;99.90
13980;DHT22;73871;49.900;8.594;2024-01-30T03:06:20;0.80;99.90
13980;DHT22;73871;49.900;8.594;2024-01-30T03:08:49;0.80;99.90
13980;DHT22;73871;49.900;8.594;2024-01-30T03:11:16;0.80;99.90
13980;DHT22;73871;49.900;8.594;2024-01-30T03:13:42;0.70;99.90
13980;DHT22;73871;49.900;8.594;2024-01-30T03:16:09;0.80;99.90
13980;DHT22;73871;49.900;8.594;2024-01-30T03:18:36;0.70;99.90
13980;DHT22;73871;49.900;8.594;2024-01-30T03:21:03;0.70;99.90
13980;DHT22;73871;49.900;8.594;2024-01-30T03:23:30;0.70;99.90
13980;DHT22;73871;49.900;8.594;2024-01-30T03:25:58;0.70;99.90
13980;DHT22;73871;49.900;8.594;2024-01-30T03:28:25;0.80;99.90
13980;DHT22;73871;49.900;8.594;2024-01-30T03:30:52;0.80;99.90
13980;DHT22;73871;49.900;8.594;2024-01-30T03:33:19;0.80;99.90
13980;DHT22;73871;49.900;8.594;2024-01-30T03:35:46;0.70;99.90
13980;DHT22;73871;49.900;8.594;2024-01-30T03:38:12;0.70;99.90
13980;DHT22;73871;49.900;8.594;2024-01-30T03:40:39;0.70;99.90
13980;DHT22;73871;49.900;8.594;2024-01-30T03:43:06;0.70;99.90
13980;DHT22;73871;49.900;8.594;2024-01-30T03:45:32;0.70;99.90
13980;DHT22;73871;49.900;8.594;2024-01-30T03:47:59;0.60;99.90
13980;DHT22;73871;49.900;8.594;2024-01-30T03:50:26;0.60;99.90
13980;DHT22;73871;49.900;8.594;2024-01-30T03:52:54;0.60;99.90
13980;DHT22;73871;49.900;8.594;2024-01-30T03:55:21;0.60;99.90
13980;DHT22;73871;49.900;8.594;2024-01-30T03:57:48;0.70;99.90
13980;DHT22;73871;49.900;8.594;2024-01-30T04:00:15;0.60;99.90
13980;DHT22;73871;49.900;8.594;2024-01-30T04:02:41;0.60;99.90
13980;DHT22;73871;49.900;8.594;2024-01-30T04:05:08;0.60;99.90
13980;DHT22;73871;49.900;8.594;2024-01-30T04:07:35;0.50;99.90
13980;DHT22;73871;49.900;8.594;2024-01-30T04:10:02;0.50;99.90
13980;DHT22;73871;49.900;8.594;2024-01-30T04:12:32;0.50;99.90
13980;DHT22;73871;49.900;8.594;2024-01-30T04:14:58;0.60;99.90
13980;DHT22;73871;49.900;8.594;2024-01-30T04:17:25;0.60;99.90
13980;DHT22;73871;49.900;8.594;2024-01-30T04:19:52;0.60;99.90
13980;DHT22;73871;49.900;8.594;2024-01-30T04:22:19;0.60;99.90
13980;DHT22;73871;49.900;8.594;2024-01-30T04:24:46;0.60;99.90
13980;DHT22;73871;49.900;8.594;2024-01-30T04:27:13;0.60;99.90
13980;DHT22;73871;49.900;8.594;2024-01-30T04:29:39;0.50;99.90
13980;DHT22;73871;49.900;8.594;2024-01-30T04:32:06;0.60;99.90
13980;DHT22;73871;49.900;8.594;2024-01-30T04:34:33;0.60;99.90
13980;DHT22;73871;49.900;8.594;2024-01-30T04:37:00;0.60;99.90
13980;DHT22;73871;49.900;8.594;2024-01-30T04:39:27;0.50;99.90
13980;DHT22;73871;49.900;8.594;2024-01-30T04:41:54;0.50;99.90
13980;DHT22;73871;49.900;8.594;2024-01-30T04:44:20;0.50;99.90
13980;DHT22;73871;49.900;8.594;2024-01-30T04:46:47;0.50;99.90
13980;DHT22;73871;49.900;8.594;2024-01-30T04:49:14;0.50;99.90
13980;DHT22;73871;49.900;8.594;2024-01-30T04:51:41;0.50;99.90
13980;DHT22;73871;49.900;8.594;2024-01-30T04:54:08;0.50;99.90
13980;DHT22;73871;49.900;8.594;2024-01-30T04:56:34;0.50;99.90
13980;DHT22;73871;49.900;8.594;2024-01-30T04:59:02;0.50;99.90
13980;DHT22;73871;49.900;8.594;2024-01-30T05:01:29;0.50;99.90
13980;DHT22;73871;49.900;8.594;2024-01-30T05:03:56;0.60;99.90
13980;DHT22;73871;49.900;8.594;2024-01-30T05:06:26;0.60;99.90
13980;DHT22;73871;49.900;8.594;2024-01-30T05:08:53;0.50;99.90
13980;DHT22;73871;49.900;8.594;2024-01-30T05:11:20;0.50;99.90
13980;DHT22;73871;49.900;8.594;2024-01-30T05:13:47;0.50;99.90
13980;DHT22;73871;49.900;8.594;2024-01-30T05:16:14;0.50;99.90
13980;DHT22;73871;49.900;8.594;2024-01-30T05:18:40;0.60;99.90
13980;DHT22;73871;49.900;8.594;2024-01-30T05:21:07;0.60;99.90
13980;DHT22;73871;49.900;8.594;2024-01-30T05:23:34;0.60;99.90
13980;DHT22;73871;49.900;8.594;2024-01-30T05:26:01;0.60;99.90
13980;DHT22;73871;49.900;8.594;2024-01-30T05:28:29;0.60;99.90
13980;DHT22;73871;49.900;8.594;2024-01-30T05:30:57;0.60;99.90
13980;DHT22;73871;49.900;8.594;2024-01-30T05:33:23;0.60;99.90
13980;DHT22;73871;49.900;8.594;2024-01-30T05:35:50;0.60;99.90
13980;DHT22;73871;49.900;8.594;2024-01-30T05:38:20;0.60;99.90
13980;DHT22;73871;49.900;8.594;2024-01-30T05:40:47;0.60;99.90
13980;DHT22;73871;49.900;8.594;2024-01-30T05:43:14;0.60;99.90
13980;DHT22;73871;49.900;8.594;2024-01-30T05:45:41;0.60;99.90
13980;DHT22;73871;49.900;8.594;2024-01-30T05:48:08;0.60;99.90
13980;DHT22;73871;49.900;8.594;2024-01-30T05:50:34;0.60;99.90
13980;DHT22;73871;49.900;8.594;2024-01-30T05:53:01;0.60;99.90
13980;DHT22;73871;49.900;8.594;2024-01-30T05:55:28;0.70;99.90
13980;DHT22;73871;49.900;8.594;2024-01-30T05:57:55;0.70;99.90
13980;DHT22;73871;49.900;8.594;2024-01-30T06:00:22;0.70;99.90
13980;DHT22;73871;49.900;8.594;2024-01-30T06:02:49;0.60;99.90
13980;DHT22;73871;49.900;8.594;2024-01-30T06:05:15;0.60;99.90
13980;DHT22;73871;49.900;8.594;2024-01-30T06:07:42;0.60;99.90
13980;DHT22;73871;49.900;8.594;2024-01-30T06:10:09;0.60;99.90
13980;DHT22;73871;49.900;8.594;2024-01-30T06:12:36;0.60;99.90
13980;DHT22;73871;49.900;8.594;2024-01-30T06:15:03;0.50;99.90
13980;DHT22;73871;49.900;8.594;2024-01-30T06:17:30;0.50;99.90
13980;DHT22;73871;49.900;8.594;2024-01-30T06:19:57;0.50;99.90
13980;DHT22;73871;49.900;8.594;2024-01-30T06:22:24;0.40;99.90
13980;DHT22;73871;49.900;8.594;2024-01-30T06:24:51;0.40;99.90
13980;DHT22;73871;49.900;8.594;2024-01-30T06:27:17;0.40;99.90
13980;DHT22;73871;49.900;8.594;2024-01-30T06:29:45;0.40;99.90
13980;DHT22;73871;49.900;8.594;2024-01-30T06:32:12;0.40;99.90
13980;DHT22;73871;49.900;8.594;2024-01-30T06:34:40;0.30;99.90
13980;DHT22;73871;49.900;8.594;2024-01-30T06:37:07;0.40;99.90
13980;DHT22;73871;49.900;8.594;2024-01-30T06:39:34;0.30;99.90
13980;DHT22;73871;49.900;8.594;2024-01-30T06:42:01;0.40;99.90
13980;DHT22;73871;49.900;8.594;2024-01-30T06:44:28;0.40;99.90
13980;DHT22;73871;49.900;8.594;2024-01-30T06:46:58;0.40;99.90
13980;DHT22;73871;49.900;8.594;2024-01-30T06:49:25;0.50;99.90
13980;DHT22;73871;49.900;8.594;2024-01-30T06:51:52;0.40;99.90
13980;DHT22;73871;49.900;8.594;2024-01-30T06:54:19;0.50;99.90
13980;DHT22;73871;49.900;8.594;2024-01-30T06:56:46;0.50;99.90
13980;DHT22;73871;49.900;8.594;2024-01-30T06:59:12;0.50;99.90
13980;DHT22;73871;49.900;8.594;2024-01-30T07:01:39;0.50;99.90
13980;DHT22;73871;49.900;8.594;2024-01-30T07:04:06;0.60;99.90
13980;DHT22;73871;49.900;8.594;2024-01-30T07:06:33;0.60;99.90
13980;DHT22;73871;49.900;8.594;2024-01-30T07:08:59;0.60;99.90
13980;DHT22;73871;49.900;8.594;2024-01-30T07:11:26;0.60;99.90
13980;DHT22;73871;49.900;8.594;2024-01-30T07:13:55;0.60;99.90
13980;DHT22;73871;49.900;8.594;2024-01-30T07:16:22;0.60;99.90
13980;DHT22;73871;49.900;8.594;2024-01-30T07:18:51;0.70;99.90
13980;DHT22;73871;49.900;8.594;2024-01-30T07:21:18;0.80;99.90
13980;DHT22;73871;49.900;8.594;2024-01-30T07:23:48;0.80;99.90
13980;DHT22;73871;49.900;8.594;2024-01-30T07:26:14;0.90;99.90
13980;DHT22;73871;49.900;8.594;2024-01-30T07:28:41;1.00;99.90
13980;DHT22;73871;49.900;8.594;2024-01-30T07:31:08;1.00;99.90
13980;DHT22;73871;49.900;8.594;2024-01-30T07:33:35;1.10;99.90
13980;DHT22;73871;49.900;8.594;2024-01-30T07:36:02;1.20;99.90
13980;DHT22;73871;49.900;8.594;2024-01-30T07:38:31;1.30;99.90
13980;DHT22;73871;49.900;8.594;2024-01-30T07:40:58;1.40;99.90
13980;DHT22;73871;49.900;8.594;2024-01-30T07:43:25;1.50;99.90
13980;DHT22;73871;49.900;8.594;2024-01-30T07:45:52;1.60;99.90
13980;DHT22;73871;49.900;8.594;2024-01-30T07:48:19;1.70;99.90
13980;DHT22;73871;49.900;8.594;2024-01-30T07:50:45;1.70;99.90
13980;DHT22;73871;49.900;8.594;2024-01-30T07:53:12;1.80;99.90
13980;DHT22;73871;49.900;8.594;2024-01-30T07:55:39;1.90;99.90
13980;DHT22;73871;49.900;8.594;2024-01-30T07:58:06;2.00;99.90
13980;DHT22;73871;49.900;8.594;2024-01-30T08:00:32;2.10;99.90
13980;DHT22;73871;49.900;8.594;2024-01-30T08:02:59;2.30;99.90
13980;DHT22;73871;49.900;8.594;2024-01-30T08:05:26;2.40;99.90
13980;DHT22;73871;49.900;8.594;2024-01-30T08:07:54;2.40;99.90
13980;DHT22;73871;49.900;8.594;2024-01-30T08:10:21;2.60;99.90
13980;DHT22;73871;49.900;8.594;2024-01-30T08:12:48;2.70;99.90
13980;DHT22;73871;49.900;8.594;2024-01-30T08:15:15;2.70;99.90
13980;DHT22;73871;49.900;8.594;2024-01-30T08:17:42;2.90;99.90
13980;DHT22;73871;49.900;8.594;2024-01-30T08:20:09;3.00;99.90
13980;DHT22;73871;49.900;8.594;2024-01-30T08:22:40;3.10;99.90
13980;DHT22;73871;49.900;8.594;2024-01-30T08:25:07;3.30;99.90
13980;DHT22;73871;49.900;8.594;2024-01-30T08:27:35;3.50;99.90
13980;DHT22;73871;49.900;8.594;2024-01-30T08:30:06;3.60;99.90
13980;DHT22;73871;49.900;8.594;2024-01-30T08:32:33;3.70;99.90
13980;DHT22;73871;49.900;8.594;2024-01-30T08:35:00;3.80;99.90
13980;DHT22;73871;49.900;8.594;2024-01-30T08:37:30;3.90;99.90
13980;DHT22;73871;49.900;8.594;2024-01-30T08:39:57;4.00;99.90
13980;DHT22;73871;49.900;8.594;2024-01-30T08:42:24;4.20;99.90
13980;DHT22;73871;49.900;8.594;2024-01-30T08:44:51;4.30;99.90
13980;DHT22;73871;49.900;8.594;2024-01-30T08:47:20;4.50;99.90
13980;DHT22;73871;49.900;8.594;2024-01-30T08:49:46;4.70;99.90
13980;DHT22;73871;49.900;8.594;2024-01-30T08:52:13;4.80;99.90
13980;DHT22;73871;49.900;8.594;2024-01-30T08:54:40;5.00;99.90
13980;DHT22;73871;49.900;8.594;2024-01-30T08:57:07;5.10;99.90
13980;DHT22;73871;49.900;8.594;2024-01-30T08:59:33;5.00;99.90
13980;DHT22;73871;49.900;8.594;2024-01-30T09:02:00;5.20;99.90
13980;DHT22;73871;49.900;8.594;2024-01-30T09:04:38;5.10;99.90
13980;DHT22;73871;49.900;8.594;2024-01-30T09:07:06;5.10;99.90
13980;DHT22;73871;49.900;8.594;2024-01-30T09:09:40;5.10;99.90
13980;DHT22;73871;49.900;8.594;2024-01-30T09:12:09;5.10;99.90
13980;DHT22;73871;49.900;8.594;2024-01-30T09:14:39;5.20;99.90
13980;DHT22;73871;49.900;8.594;2024-01-30T09:17:06;5.30;99.90
13980;DHT22;73871;49.900;8.594;2024-01-30T09:19:33;5.30;99.90
13980;DHT22;73871;49.900;8.594;2024-01-30T09:22:00;5.40;99.90
13980;DHT22;73871;49.900;8.594;2024-01-30T09:24:27;5.40;99.90
13980;DHT22;73871;49.900;8.594;2024-01-30T09:26:54;5.50;99.90
13980;DHT22;73871;49.900;8.594;2024-01-30T09:29:21;5.50;99.90
13980;DHT22;73871;49.900;8.594;2024-01-30T09:31:48;5.60;99.90
13980;DHT22;73871;49.900;8.594;2024-01-30T09:34:15;5.60;99.90
13980;DHT22;73871;49.900;8.594;2024-01-30T09:36:42;5.60;99.90
13980;DHT22;73871;49.900;8.594;2024-01-30T09:39:08;5.80;99.90
13980;DHT22;73871;49.900;8.594;2024-01-30T09:44:43;6.10;99.90
13980;DHT22;73871;49.900;8.594;2024-01-30T09:47:10;6.40;99.90
13980;DHT22;73871;49.900;8.594;2024-01-30T09:49:38;6.90;99.90
13980;DHT22;73871;49.900;8.594;2024-01-30T09:52:06;7.40;99.90
13980;DHT22;73871;49.900;8.594;2024-01-30T09:54:34;8.00;99.90
13980;DHT22;73871;49.900;8.594;2024-01-30T09:57:03;8.50;99.90
13980;DHT22;73871;49.900;8.594;2024-01-30T09:59:30;8.70;99.90
13980;DHT22;73871;49.900;8.594;2024-01-30T10:01:57;8.70;99.90
13980;DHT22;73871;49.900;8.594;2024-01-30T10:04:24;8.50;99.90
13980;DHT22;73871;49.900;8.594;2024-01-30T10:06:51;8.10;99.90
13980;DHT22;73871;49.900;8.594;2024-01-30T10:09:18;8.10;99.90
13980;DHT22;73871;49.900;8.594;2024-01-30T10:11:45;7.90;99.90
13980;DHT22;73871;49.900;8.594;2024-01-30T10:14:12;7.80;99.90
13980;DHT22;73871;49.900;8.594;2024-01-30T10:16:39;7.60;99.90
13980;DHT22;73871;49.900;8.594;2024-01-30T10:19:06;7.50;99.90
13980;DHT22;73871;49.900;8.594;2024-01-30T10:21:33;7.60;99.90
13980;DHT22;73871;49.900;8.594;2024-01-30T10:23:59;7.60;99.90
13980;DHT22;73871;49.900;8.594;2024-01-30T10:26:26;7.70;99.90
13980;DHT22;73871;49.900;8.594;2024-01-30T10:28:53;7.70;99.90
13980;DHT22;73871;49.900;8.594;2024-01-30T10:31:20;7.70;99.90
13980;DHT22;73871;49.900;8.594;2024-01-30T10:33:46;7.90;99.90
13980;DHT22;73871;49.900;8.594;2024-01-30T10:36:14;7.90;99.90
13980;DHT22;73871;49.900;8.594;2024-01-30T10:38:47;8.00;99.90
13980;DHT22;73871;49.900;8.594;2024-01-30T10:41:19;8.00;99.90
13980;DHT22;73871;49.900;8.594;2024-01-30T10:44:08;8.10;99.90
13980;DHT22;73871;49.900;8.594;2024-01-30T10:46:37;8.10;99.90
13980;DHT22;73871;49.900;8.594;2024-01-30T10:49:04;8.00;99.90
13980;DHT22;73871;49.900;8.594;2024-01-30T10:51:32;7.90;99.90
13980;DHT22;73871;49.900;8.594;2024-01-30T10:54:01;7.70;99.90
13980;DHT22;73871;49.900;8.594;2024-01-30T10:56:30;7.80;99.90
13980;DHT22;73871;49.900;8.594;2024-01-30T10:58:59;7.90;99.90
13980;DHT22;73871;49.900;8.594;2024-01-30T11:01:26;7.90;99.90
13980;DHT22;73871;49.900;8.594;2024-01-30T11:03:55;8.00;99.90
13980;DHT22;73871;49.900;8.594;2024-01-30T11:06:24;8.20;99.90
13980;DHT22;73871;49.900;8.594;2024-01-30T11:09:04;8.20;99.90
13980;DHT22;73871;49.900;8.594;2024-01-30T11:11:56;8.40;99.90
13980;DHT22;73871;49.900;8.594;2024-01-30T11:14:28;8.50;99.90
13980;DHT22;73871;49.900;8.594;2024-01-30T11:16:59;8.70;99.90
13980;DHT22;73871;49.900;8.594;2024-01-30T11:19:26;8.80;99.90
13980;DHT22;73871;49.900;8.594;2024-01-30T11:21:54;8.80;99.90
13980;DHT22;73871;49.900;8.594;2024-01-30T11:24:21;8.80;99.90
13980;DHT22;73871;49.900;8.594;2024-01-30T11:26:58;8.80;99.90
13980;DHT22;73871;49.900;8.594;2024-01-30T11:29:27;8.90;99.90
13980;DHT22;73871;49.900;8.594;2024-01-30T11:31:55;9.00;99.90
13980;DHT22;73871;49.900;8.594;2024-01-30T11:34:22;9.20;99.90
13980;DHT22;73871;49.900;8.594;2024-01-30T11:36:58;9.20;99.90
13980;DHT22;73871;49.900;8.594;2024-01-30T11:39:31;9.00;99.90
13980;DHT22;73871;49.900;8.594;2024-01-30T11:41:59;8.70;99.90
13980;DHT22;73871;49.900;8.594;2024-01-30T11:44:26;8.80;99.90
13980;DHT22;73871;49.900;8.594;2024-01-30T11:46:53;8.70;99.90
13980;DHT22;73871;49.900;8.594;2024-01-30T11:49:20;8.90;99.90
13980;DHT22;73871;49.900;8.594;2024-01-30T11:51:48;9.10;99.90
13980;DHT22;73871;49.900;8.594;2024-01-30T11:54:18;9.20;99.90
13980;DHT22;73871;49.900;8.594;2024-01-30T11:56:44;9.10;99.90
13980;DHT22;73871;49.900;8.594;2024-01-30T11:59:11;9.10;99.90
13980;DHT22;73871;49.900;8.594;2024-01-30T12:01:38;9.20;99.90
13980;DHT22;73871;49.900;8.594;2024-01-30T12:04:07;9.50;99.90
13980;DHT22;73871;49.900;8.594;2024-01-30T12:06:37;9.60;99.90
13980;DHT22;73871;49.900;8.594;2024-01-30T12:09:04;9.60;99.90
13980;DHT22;73871;49.900;8.594;2024-01-30T12:11:31;9.70;99.90
13980;DHT22;73871;49.900;8.594;2024-01-30T12:13:58;9.80;99.90
13980;DHT22;73871;49.900;8.594;2024-01-30T12:16:25;9.90;99.90
13980;DHT22;73871;49.900;8.594;2024-01-30T12:18:59;10.10;99.90
13980;DHT22;73871;49.900;8.594;2024-01-30T12:21:28;10.20;99.90
13980;DHT22;73871;49.900;8.594;2024-01-30T12:23:59;10.40;99.90
13980;DHT22;73871;49.900;8.594;2024-01-30T12:26:26;10.40;99.90
13980;DHT22;73871;49.900;8.594;2024-01-30T12:28:56;10.50;99.90
13980;DHT22;73871;49.900;8.594;2024-01-30T12:31:28;10.70;99.90
13980;DHT22;73871;49.900;8.594;2024-01-30T12:33:55;10.60;99.90
13980;DHT22;73871;49.900;8.594;2024-01-30T12:36:25;10.70;99.90
13980;DHT22;73871;49.900;8.594;2024-01-30T12:38:52;10.80;99.90
13980;DHT22;73871;49.900;8.594;2024-01-30T12:41:20;10.80;99.90
13980;DHT22;73871;49.900;8.594;2024-01-30T12:43:46;10.80;99.90
13980;DHT22;73871;49.900;8.594;2024-01-30T12:46:17;10.70;99.90
13980;DHT22;73871;49.900;8.594;2024-01-30T12:48:44;10.90;99.90
13980;DHT22;73871;49.900;8.594;2024-01-30T12:51:11;11.00;99.90
13980;DHT22;73871;49.900;8.594;2024-01-30T12:53:37;11.10;99.90
13980;DHT22;73871;49.900;8.594;2024-01-30T12:56:04;11.20;99.90
13980;DHT22;73871;49.900;8.594;2024-01-30T12:58:31;11.20;99.90
13980;DHT22;73871;49.900;8.594;2024-01-30T13:00:58;11.20;99.90
13980;DHT22;73871;49.900;8.594;2024-01-30T13:03:25;11.10;99.90
13980;DHT22;73871;49.900;8.594;2024-01-30T13:05:52;11.20;99.90
13980;DHT22;73871;49.900;8.594;2024-01-30T13:08:19;11.10;99.90
13980;DHT22;73871;49.900;8.594;2024-01-30T13:10:46;10.90;99.90
13980;DHT22;73871;49.900;8.594;2024-01-30T13:13:16;11.00;99.90
13980;DHT22;73871;49.900;8.594;2024-01-30T13:15:47;11.10;99.90
13980;DHT22;73871;49.900;8.594;2024-01-30T13:18:15;11.20;99.90
13980;DHT22;73871;49.900;8.594;2024-01-30T13:20:42;11.30;99.90
13980;DHT22;73871;49.900;8.594;2024-01-30T13:23:09;11.10;99.90
13980;DHT22;73871;49.900;8.594;2024-01-30T13:25:35;10.80;99.90
13980;DHT22;73871;49.900;8.594;2024-01-30T13:28:02;10.70;99.90
13980;DHT22;73871;49.900;8.594;2024-01-30T13:30:30;10.60;99.90
13980;DHT22;73871;49.900;8.594;2024-01-30T13:32:57;10.60;99.90
13980;DHT22;73871;49.900;8.594;2024-01-30T13:35:25;10.50;99.90
13980;DHT22;73871;49.900;8.594;2024-01-30T13:37:52;10.50;99.90
13980;DHT22;73871;49.900;8.594;2024-01-30T13:40:18;10.50;99.90
13980;DHT22;73871;49.900;8.594;2024-01-30T13:42:45;10.40;99.90
13980;DHT22;73871;49.900;8.594;2024-01-30T13:45:12;10.40;99.90
13980;DHT22;73871;49.900;8.594;2024-01-30T13:47:39;10.50;99.90
13980;DHT22;73871;49.900;8.594;2024-01-30T13:50:06;10.40;99.90
13980;DHT22;73871;49.900;8.594;2024-01-30T13:52:34;10.50;99.90
13980;DHT22;73871;49.900;8.594;2024-01-30T13:55:10;10.50;99.90
13980;DHT22;73871;49.900;8.594;2024-01-30T13:57:37;10.40;99.90
13980;DHT22;73871;49.900;8.594;2024-01-30T14:00:05;10.40;99.90
13980;DHT22;73871;49.900;8.594;2024-01-30T14:02:38;10.40;99.90
13980;DHT22;73871;49.900;8.594;2024-01-30T14:05:05;10.50;99.90
13980;DHT22;73871;49.900;8.594;2024-01-30T14:07:33;10.40;99.90
13980;DHT22;73871;49.900;8.594;2024-01-30T14:10:00;10.30;99.90
13980;DHT22;73871;49.900;8.594;2024-01-30T14:12:27;10.30;99.90
13980;DHT22;73871;49.900;8.594;2024-01-30T14:14:53;10.20;99.90
13980;DHT22;73871;49.900;8.594;2024-01-30T14:17:20;10.20;99.90
13980;DHT22;73871;49.900;8.594;2024-01-30T14:19:47;10.20;99.90
13980;DHT22;73871;49.900;8.594;2024-01-30T14:22:14;10.20;99.90
13980;DHT22;73871;49.900;8.594;2024-01-30T14:24:41;10.20;99.90
13980;DHT22;73871;49.900;8.594;2024-01-30T14:27:08;10.10;99.90
13980;DHT22;73871;49.900;8.594;2024-01-30T14:29:37;10.10;99.90
13980;DHT22;73871;49.900;8.594;2024-01-30T14:32:04;10.10;99.90
13980;DHT22;73871;49.900;8.594;2024-01-30T14:34:31;10.00;99.90
13980;DHT22;73871;49.900;8.594;2024-01-30T14:36:58;10.00;99.90
13980;DHT22;73871;49.900;8.594;2024-01-30T14:39:25;10.00;99.90
13980;DHT22;73871;49.900;8.594;2024-01-30T14:41:52;10.00;99.90
13980;DHT22;73871;49.900;8.594;2024-01-30T14:44:19;9.90;99.90
13980;DHT22;73871;49.900;8.594;2024-01-30T14:46:45;10.00;99.90
13980;DHT22;73871;49.900;8.594;2024-01-30T14:49:12;9.90;99.90
13980;DHT22;73871;49.900;8.594;2024-01-30T14:51:39;9.90;99.90
13980;DHT22;73871;49.900;8.594;2024-01-30T14:54:06;10.00;99.90
13980;DHT22;73871;49.900;8.594;2024-01-30T14:56:33;9.90;99.90
13980;DHT22;73871;49.900;8.594;2024-01-30T14:59:00;9.90;99.90
13980;DHT22;73871;49.900;8.594;2024-01-30T15:01:27;9.90;99.90
13980;DHT22;73871;49.900;8.594;2024-01-30T15:03:54;9.80;99.90
13980;DHT22;73871;49.900;8.594;2024-01-30T15:06:22;9.80;99.90
13980;DHT22;73871;49.900;8.594;2024-01-30T15:08:51;9.70;99.90
13980;DHT22;73871;49.900;8.594;2024-01-30T15:11:20;9.80;99.90
13980;DHT22;73871;49.900;8.594;2024-01-30T15:13:46;9.80;99.90
13980;DHT22;73871;49.900;8.594;2024-01-30T15:16:13;9.70;99.90
13980;DHT22;73871;49.900;8.594;2024-01-30T15:18:40;9.80;99.90
13980;DHT22;73871;49.900;8.594;2024-01-30T15:21:07;9.70;99.90
13980;DHT22;73871;49.900;8.594;2024-01-30T15:23:34;9.70;99.90
13980;DHT22;73871;49.900;8.594;2024-01-30T15:26:01;9.70;99.90
13980;DHT22;73871;49.900;8.594;2024-01-30T15:28:36;9.70;99.90
13980;DHT22;73871;49.900;8.594;2024-01-30T15:31:04;9.70;99.90
13980;DHT22;73871;49.900;8.594;2024-01-30T15:33:32;9.60;99.90
13980;DHT22;73871;49.900;8.594;2024-01-30T15:36:00;9.60;99.90
13980;DHT22;73871;49.900;8.594;2024-01-30T15:38:27;9.60;99.90
13980;DHT22;73871;49.900;8.594;2024-01-30T15:40:56;9.60;99.90
13980;DHT22;73871;49.900;8.594;2024-01-30T15:43:23;9.60;99.90
13980;DHT22;73871;49.900;8.594;2024-01-30T15:45:50;9.60;99.90
13980;DHT22;73871;49.900;8.594;2024-01-30T15:48:19;9.60;99.90